sensor_id;sensor_type;location;lat;lon;timestamp;P1;durP1;ratioP1;P2;durP2;ratioP2
20488;SDS011;10403;54.092;12.122;2024-02-26T00:02:22;7.00;;;4.77;;
20488;SDS011;10403;54.092;12.122;2024-02-26T00:04:50;8.07;;;5.03;;
20488;SDS011;10403;54.092;12.122;2024-02-26T00:07:17;8.27;;;4.80;;
20488;SDS011;10403;54.092;12.122;2024-02-26T00:09:44;7.27;;;4.33;;
20488;SDS011;10403;54.092;12.122;2024-02-26T00:12:11;6.93;;;4.70;;
20488;SDS011;10403;54.092;12.122;2024-02-26T00:14:39;8.73;;;4.83;;
20488;SDS011;10403;54.092;12.122;2024-02-26T00:17:07;6.27;;;4.13;;
20488;SDS011;10403;54.092;12.122;2024-02-26T00:19:35;5.77;;;4.13;;
20488;SDS011;10403;54.092;12.122;2024-02-26T00:22:02;7.20;;;4.23;;
20488;SDS011;10403;54.092;12.122;2024-02-26T00:24:29;8.93;;;4.50;;
20488;SDS011;10403;54.092;12.122;2024-02-26T00:26:57;5.07;;;3.60;;
20488;SDS011;10403;54.092;12.122;2024-02-26T00:29:26;6.97;;;3.60;;
20488;SDS011;10403;54.092;12.122;2024-02-26T00:31:53;5.73;;;3.90;;
20488;SDS011;10403;54.092;12.122;2024-02-26T00:34:20;4.83;;;3.67;;
20488;SDS011;10403;54.092;12.122;2024-02-26T00:36:47;4.80;;;3.27;;
20488;SDS011;10403;54.092;12.122;2024-02-26T00:39:14;5.60;;;3.70;;
20488;SDS011;10403;54.092;12.122;2024-02-26T00:41:42;5.80;;;3.53;;
20488;SDS011;10403;54.092;12.122;2024-02-26T00:44:09;6.90;;;3.60;;
20488;SDS011;10403;54.092;12.122;2024-02-26T00:46:36;5.00;;;3.60;;
20488;SDS011;10403;54.092;12.122;2024-02-26T00:49:03;6.17;;;3.50;;
20488;SDS011;10403;54.092;12.122;2024-02-26T00:51:31;7.43;;;3.40;;
20488;SDS011;10403;54.092;12.122;2024-02-26T00:53:58;5.70;;;3.60;;
20488;SDS011;10403;54.092;12.122;2024-02-26T00:56:26;5.77;;;3.70;;
20488;SDS011;10403;54.092;12.122;2024-02-26T00:58:53;6.53;;;3.30;;
20488;SDS011;10403;54.092;12.122;2024-02-26T01:01:20;5.50;;;3.47;;
20488;SDS011;10403;54.092;12.122;2024-02-26T01:03:47;6.90;;;3.97;;
20488;SDS011;10403;54.092;12.122;2024-02-26T01:06:15;5.13;;;4.07;;
20488;SDS011;10403;54.092;12.122;2024-02-26T01:08:42;6.50;;;3.37;;
20488;SDS011;10403;54.092;12.122;2024-02-26T01:11:09;4.63;;;3.50;;
20488;SDS011;10403;54.092;12.122;2024-02-26T01:13:37;4.47;;;3.33;;
20488;SDS011;10403;54.092;12.122;2024-02-26T01:16:04;7.00;;;3.40;;
20488;SDS011;10403;54.092;12.122;2024-02-26T01:18:31;5.17;;;3.50;;
20488;SDS011;10403;54.092;12.122;2024-02-26T01:20:59;4.80;;;3.27;;
20488;SDS011;10403;54.092;12.122;2024-02-26T01:23:26;5.77;;;3.70;;
20488;SDS011;10403;54.092;12.122;2024-02-26T01:25:53;5.23;;;3.70;;
20488;SDS011;10403;54.092;12.122;2024-02-26T01:28:21;6.63;;;3.67;;
20488;SDS011;10403;54.092;12.122;2024-02-26T01:30:48;6.57;;;3.80;;
20488;SDS011;10403;54.092;12.122;2024-02-26T01:33:15;5.03;;;3.50;;
20488;SDS011;10403;54.092;12.122;2024-02-26T01:35:43;6.43;;;3.47;;
20488;SDS011;10403;54.092;12.122;2024-02-26T01:38:10;4.40;;;3.30;;
20488;SDS011;10403;54.092;12.122;2024-02-26T01:40:37;5.33;;;3.90;;
20488;SDS011;10403;54.092;12.122;2024-02-26T01:43:04;4.53;;;3.57;;
20488;SDS011;10403;54.092;12.122;2024-02-26T01:45:32;4.77;;;3.77;;
20488;SDS011;10403;54.092;12.122;2024-02-26T01:47:59;4.37;;;3.50;;
20488;SDS011;10403;54.092;12.122;2024-02-26T01:50:27;6.10;;;3.70;;
20488;SDS011;10403;54.092;12.122;2024-02-26T01:52:55;5.30;;;3.70;;
20488;SDS011;10403;54.092;12.122;2024-02-26T01:55:24;4.60;;;3.60;;
20488;SDS011;10403;54.092;12.122;2024-02-26T01:57:52;5.03;;;3.23;;
20488;SDS011;10403;54.092;12.122;2024-02-26T02:00:20;5.23;;;3.10;;
20488;SDS011;10403;54.092;12.122;2024-02-26T02:02:49;5.43;;;3.90;;
20488;SDS011;10403;54.092;12.122;2024-02-26T02:05:17;4.87;;;3.70;;
20488;SDS011;10403;54.092;12.122;2024-02-26T02:07:47;6.23;;;3.57;;
20488;SDS011;10403;54.092;12.122;2024-02-26T02:10:16;4.90;;;3.67;;
20488;SDS011;10403;54.092;12.122;2024-02-26T02:12:45;5.87;;;3.37;;
20488;SDS011;10403;54.092;12.122;2024-02-26T02:15:12;4.97;;;4.00;;
20488;SDS011;10403;54.092;12.122;2024-02-26T02:17:39;7.77;;;3.43;;
20488;SDS011;10403;54.092;12.122;2024-02-26T02:20:14;4.90;;;3.50;;
20488;SDS011;10403;54.092;12.122;2024-02-26T02:22:46;5.90;;;3.60;;
20488;SDS011;10403;54.092;12.122;2024-02-26T02:25:14;5.73;;;3.70;;
20488;SDS011;10403;54.092;12.122;2024-02-26T02:27:41;5.60;;;3.70;;
20488;SDS011;10403;54.092;12.122;2024-02-26T02:30:10;3.83;;;3.30;;
20488;SDS011;10403;54.092;12.122;2024-02-26T02:32:39;5.33;;;4.13;;
20488;SDS011;10403;54.092;12.122;2024-02-26T02:35:10;4.43;;;3.23;;
20488;SDS011;10403;54.092;12.122;2024-02-26T02:37:38;6.70;;;3.70;;
20488;SDS011;10403;54.092;12.122;2024-02-26T02:40:05;7.93;;;3.67;;
20488;SDS011;10403;54.092;12.122;2024-02-26T02:42:33;8.33;;;4.23;;
20488;SDS011;10403;54.092;12.122;2024-02-26T02:45:00;5.80;;;3.70;;
20488;SDS011;10403;54.092;12.122;2024-02-26T02:47:28;7.63;;;3.60;;
20488;SDS011;10403;54.092;12.122;2024-02-26T02:49:55;6.10;;;3.73;;
20488;SDS011;10403;54.092;12.122;2024-02-26T02:52:22;8.53;;;4.10;;
20488;SDS011;10403;54.092;12.122;2024-02-26T02:54:49;5.83;;;4.00;;
20488;SDS011;10403;54.092;12.122;2024-02-26T02:57:16;6.70;;;3.70;;
20488;SDS011;10403;54.092;12.122;2024-02-26T02:59:44;6.67;;;4.10;;
20488;SDS011;10403;54.092;12.122;2024-02-26T03:02:11;9.03;;;3.90;;
20488;SDS011;10403;54.092;12.122;2024-02-26T03:04:38;4.93;;;3.93;;
20488;SDS011;10403;54.092;12.122;2024-02-26T03:07:06;5.03;;;3.87;;
20488;SDS011;10403;54.092;12.122;2024-02-26T03:09:33;9.40;;;4.20;;
20488;SDS011;10403;54.092;12.122;2024-02-26T03:12:00;8.27;;;3.93;;
20488;SDS011;10403;54.092;12.122;2024-02-26T03:14:27;7.27;;;4.30;;
20488;SDS011;10403;54.092;12.122;2024-02-26T03:16:55;5.40;;;3.63;;
20488;SDS011;10403;54.092;12.122;2024-02-26T03:19:22;5.73;;;3.97;;
20488;SDS011;10403;54.092;12.122;2024-02-26T03:21:52;5.67;;;3.97;;
20488;SDS011;10403;54.092;12.122;2024-02-26T03:24:19;4.73;;;3.70;;
20488;SDS011;10403;54.092;12.122;2024-02-26T03:26:46;5.77;;;3.97;;
20488;SDS011;10403;54.092;12.122;2024-02-26T03:29:13;5.70;;;3.90;;
20488;SDS011;10403;54.092;12.122;2024-02-26T03:31:41;6.73;;;4.17;;
20488;SDS011;10403;54.092;12.122;2024-02-26T03:38:31;5.13;;;3.70;;
20488;SDS011;10403;54.092;12.122;2024-02-26T03:40:58;7.33;;;4.13;;
20488;SDS011;10403;54.092;12.122;2024-02-26T03:43:26;5.13;;;3.67;;
20488;SDS011;10403;54.092;12.122;2024-02-26T03:45:53;5.47;;;3.67;;
20488;SDS011;10403;54.092;12.122;2024-02-26T03:48:20;6.03;;;3.63;;
20488;SDS011;10403;54.092;12.122;2024-02-26T03:50:47;7.30;;;4.27;;
20488;SDS011;10403;54.092;12.122;2024-02-26T03:53:15;6.53;;;3.83;;
20488;SDS011;10403;54.092;12.122;2024-02-26T03:55:42;6.77;;;3.73;;
20488;SDS011;10403;54.092;12.122;2024-02-26T03:58:09;6.53;;;4.83;;
20488;SDS011;10403;54.092;12.122;2024-02-26T04:00:39;6.87;;;4.13;;
20488;SDS011;10403;54.092;12.122;2024-02-26T04:03:06;5.13;;;4.17;;
20488;SDS011;10403;54.092;12.122;2024-02-26T04:05:33;4.93;;;3.40;;
20488;SDS011;10403;54.092;12.122;2024-02-26T04:08:00;8.23;;;4.53;;
20488;SDS011;10403;54.092;12.122;2024-02-26T04:10:28;5.90;;;4.10;;
20488;SDS011;10403;54.092;12.122;2024-02-26T04:12:55;5.67;;;3.83;;
20488;SDS011;10403;54.092;12.122;2024-02-26T04:15:22;9.47;;;3.93;;
20488;SDS011;10403;54.092;12.122;2024-02-26T04:17:49;6.37;;;4.07;;
20488;SDS011;10403;54.092;12.122;2024-02-26T04:20:17;7.27;;;4.27;;
20488;SDS011;10403;54.092;12.122;2024-02-26T04:22:44;5.97;;;4.00;;
20488;SDS011;10403;54.092;12.122;2024-02-26T04:25:11;6.60;;;4.37;;
20488;SDS011;10403;54.092;12.122;2024-02-26T04:27:39;8.00;;;4.40;;
20488;SDS011;10403;54.092;12.122;2024-02-26T04:30:06;10.73;;;5.57;;
20488;SDS011;10403;54.092;12.122;2024-02-26T04:32:34;13.67;;;4.83;;
20488;SDS011;10403;54.092;12.122;2024-02-26T04:35:02;5.63;;;4.00;;
20488;SDS011;10403;54.092;12.122;2024-02-26T04:37:30;8.93;;;4.23;;
20488;SDS011;10403;54.092;12.122;2024-02-26T04:40:00;6.63;;;4.37;;
20488;SDS011;10403;54.092;12.122;2024-02-26T04:42:27;7.73;;;4.73;;
20488;SDS011;10403;54.092;12.122;2024-02-26T04:44:55;5.80;;;4.10;;
20488;SDS011;10403;54.092;12.122;2024-02-26T04:47:22;5.80;;;4.43;;
20488;SDS011;10403;54.092;12.122;2024-02-26T04:49:50;7.37;;;3.80;;
20488;SDS011;10403;54.092;12.122;2024-02-26T04:52:18;6.77;;;4.03;;
20488;SDS011;10403;54.092;12.122;2024-02-26T04:54:45;5.40;;;4.13;;
20488;SDS011;10403;54.092;12.122;2024-02-26T04:57:13;6.33;;;4.13;;
20488;SDS011;10403;54.092;12.122;2024-02-26T04:59:40;9.80;;;4.50;;
20488;SDS011;10403;54.092;12.122;2024-02-26T05:02:09;6.17;;;4.00;;
20488;SDS011;10403;54.092;12.122;2024-02-26T05:04:36;6.17;;;4.50;;
20488;SDS011;10403;54.092;12.122;2024-02-26T05:07:04;9.23;;;4.17;;
20488;SDS011;10403;54.092;12.122;2024-02-26T05:09:32;7.00;;;4.23;;
20488;SDS011;10403;54.092;12.122;2024-02-26T05:11:59;10.13;;;5.17;;
20488;SDS011;10403;54.092;12.122;2024-02-26T05:14:27;7.00;;;4.40;;
20488;SDS011;10403;54.092;12.122;2024-02-26T05:16:54;7.27;;;4.73;;
20488;SDS011;10403;54.092;12.122;2024-02-26T05:19:22;10.57;;;4.27;;
20488;SDS011;10403;54.092;12.122;2024-02-26T05:21:50;7.00;;;4.53;;
20488;SDS011;10403;54.092;12.122;2024-02-26T05:24:17;5.27;;;4.30;;
20488;SDS011;10403;54.092;12.122;2024-02-26T05:26:45;11.53;;;4.47;;
20488;SDS011;10403;54.092;12.122;2024-02-26T05:29:15;8.47;;;4.77;;
20488;SDS011;10403;54.092;12.122;2024-02-26T05:31:42;9.17;;;4.83;;
20488;SDS011;10403;54.092;12.122;2024-02-26T05:34:10;6.87;;;5.17;;
20488;SDS011;10403;54.092;12.122;2024-02-26T05:36:37;8.33;;;4.63;;
20488;SDS011;10403;54.092;12.122;2024-02-26T05:39:05;8.40;;;5.27;;
20488;SDS011;10403;54.092;12.122;2024-02-26T05:41:33;11.13;;;6.50;;
20488;SDS011;10403;54.092;12.122;2024-02-26T05:44:00;10.17;;;5.67;;
20488;SDS011;10403;54.092;12.122;2024-02-26T05:46:27;9.97;;;5.57;;
20488;SDS011;10403;54.092;12.122;2024-02-26T05:48:54;7.27;;;4.90;;
20488;SDS011;10403;54.092;12.122;2024-02-26T05:51:22;7.30;;;4.90;;
20488;SDS011;10403;54.092;12.122;2024-02-26T05:53:49;8.03;;;5.60;;
20488;SDS011;10403;54.092;12.122;2024-02-26T05:56:21;15.60;;;6.50;;
20488;SDS011;10403;54.092;12.122;2024-02-26T05:58:49;10.43;;;5.90;;
20488;SDS011;10403;54.092;12.122;2024-02-26T06:01:18;10.10;;;6.27;;
20488;SDS011;10403;54.092;12.122;2024-02-26T06:03:46;10.73;;;5.67;;
20488;SDS011;10403;54.092;12.122;2024-02-26T06:06:13;9.10;;;5.50;;
20488;SDS011;10403;54.092;12.122;2024-02-26T06:08:42;8.47;;;5.00;;
20488;SDS011;10403;54.092;12.122;2024-02-26T06:11:10;6.87;;;4.53;;
20488;SDS011;10403;54.092;12.122;2024-02-26T06:13:37;6.87;;;4.70;;
20488;SDS011;10403;54.092;12.122;2024-02-26T06:16:04;9.63;;;5.13;;
20488;SDS011;10403;54.092;12.122;2024-02-26T06:18:32;6.93;;;5.07;;
20488;SDS011;10403;54.092;12.122;2024-02-26T06:20:59;9.53;;;5.23;;
20488;SDS011;10403;54.092;12.122;2024-02-26T06:23:27;8.97;;;5.03;;
20488;SDS011;10403;54.092;12.122;2024-02-26T06:25:54;8.37;;;5.43;;
20488;SDS011;10403;54.092;12.122;2024-02-26T06:28:21;9.67;;;4.77;;
20488;SDS011;10403;54.092;12.122;2024-02-26T06:30:48;6.07;;;4.40;;
20488;SDS011;10403;54.092;12.122;2024-02-26T06:33:17;8.27;;;4.70;;
20488;SDS011;10403;54.092;12.122;2024-02-26T06:35:44;5.97;;;4.37;;
20488;SDS011;10403;54.092;12.122;2024-02-26T06:38:11;10.43;;;5.53;;
20488;SDS011;10403;54.092;12.122;2024-02-26T06:40:40;9.27;;;5.27;;
20488;SDS011;10403;54.092;12.122;2024-02-26T06:43:07;7.33;;;5.00;;
20488;SDS011;10403;54.092;12.122;2024-02-26T06:45:35;8.90;;;5.17;;
20488;SDS011;10403;54.092;12.122;2024-02-26T06:48:02;11.53;;;5.40;;
20488;SDS011;10403;54.092;12.122;2024-02-26T06:50:30;10.87;;;5.43;;
20488;SDS011;10403;54.092;12.122;2024-02-26T06:52:58;12.97;;;5.10;;
20488;SDS011;10403;54.092;12.122;2024-02-26T06:55:25;6.13;;;4.60;;
20488;SDS011;10403;54.092;12.122;2024-02-26T06:57:52;10.80;;;5.93;;
20488;SDS011;10403;54.092;12.122;2024-02-26T07:00:19;8.30;;;4.83;;
20488;SDS011;10403;54.092;12.122;2024-02-26T07:02:47;7.90;;;5.00;;
20488;SDS011;10403;54.092;12.122;2024-02-26T07:05:14;7.90;;;4.80;;
20488;SDS011;10403;54.092;12.122;2024-02-26T07:07:41;9.40;;;5.70;;
20488;SDS011;10403;54.092;12.122;2024-02-26T07:10:09;9.57;;;5.53;;
20488;SDS011;10403;54.092;12.122;2024-02-26T07:12:39;11.17;;;4.90;;
20488;SDS011;10403;54.092;12.122;2024-02-26T07:15:06;11.43;;;5.40;;
20488;SDS011;10403;54.092;12.122;2024-02-26T07:17:37;9.63;;;5.83;;
20488;SDS011;10403;54.092;12.122;2024-02-26T07:20:06;8.47;;;5.43;;
20488;SDS011;10403;54.092;12.122;2024-02-26T07:22:36;9.80;;;5.33;;
20488;SDS011;10403;54.092;12.122;2024-02-26T07:25:03;9.70;;;4.93;;
20488;SDS011;10403;54.092;12.122;2024-02-26T07:27:33;8.77;;;5.33;;
20488;SDS011;10403;54.092;12.122;2024-02-26T07:30:00;12.30;;;6.00;;
20488;SDS011;10403;54.092;12.122;2024-02-26T07:32:28;11.87;;;5.70;;
20488;SDS011;10403;54.092;12.122;2024-02-26T07:34:55;8.97;;;5.37;;
20488;SDS011;10403;54.092;12.122;2024-02-26T07:37:22;8.57;;;5.00;;
20488;SDS011;10403;54.092;12.122;2024-02-26T07:39:49;8.30;;;5.60;;
20488;SDS011;10403;54.092;12.122;2024-02-26T07:42:16;8.13;;;5.70;;
20488;SDS011;10403;54.092;12.122;2024-02-26T07:44:44;10.43;;;6.00;;
20488;SDS011;10403;54.092;12.122;2024-02-26T07:47:11;7.87;;;5.47;;
20488;SDS011;10403;54.092;12.122;2024-02-26T07:49:39;12.93;;;5.93;;
20488;SDS011;10403;54.092;12.122;2024-02-26T07:52:07;9.13;;;6.03;;
20488;SDS011;10403;54.092;12.122;2024-02-26T07:54:34;12.20;;;5.87;;
20488;SDS011;10403;54.092;12.122;2024-02-26T07:57:02;13.03;;;6.30;;
20488;SDS011;10403;54.092;12.122;2024-02-26T07:59:32;12.17;;;6.13;;
20488;SDS011;10403;54.092;12.122;2024-02-26T08:01:59;7.83;;;5.43;;
20488;SDS011;10403;54.092;12.122;2024-02-26T08:04:29;16.63;;;6.50;;
20488;SDS011;10403;54.092;12.122;2024-02-26T08:06:57;9.43;;;6.00;;
20488;SDS011;10403;54.092;12.122;2024-02-26T08:09:25;13.67;;;6.60;;
20488;SDS011;10403;54.092;12.122;2024-02-26T08:11:52;12.80;;;6.47;;
20488;SDS011;10403;54.092;12.122;2024-02-26T08:14:19;12.07;;;6.03;;
20488;SDS011;10403;54.092;12.122;2024-02-26T08:16:47;11.50;;;5.70;;
20488;SDS011;10403;54.092;12.122;2024-02-26T08:19:15;9.77;;;5.80;;
20488;SDS011;10403;54.092;12.122;2024-02-26T08:21:44;10.17;;;6.17;;
20488;SDS011;10403;54.092;12.122;2024-02-26T08:24:11;7.00;;;5.63;;
20488;SDS011;10403;54.092;12.122;2024-02-26T08:26:38;11.27;;;5.87;;
20488;SDS011;10403;54.092;12.122;2024-02-26T08:29:06;9.83;;;6.20;;
20488;SDS011;10403;54.092;12.122;2024-02-26T08:31:33;17.77;;;7.47;;
20488;SDS011;10403;54.092;12.122;2024-02-26T08:34:04;16.00;;;6.57;;
20488;SDS011;10403;54.092;12.122;2024-02-26T08:36:32;9.73;;;7.13;;
20488;SDS011;10403;54.092;12.122;2024-02-26T08:39:01;10.20;;;7.20;;
20488;SDS011;10403;54.092;12.122;2024-02-26T08:41:29;14.57;;;7.30;;
20488;SDS011;10403;54.092;12.122;2024-02-26T08:43:56;12.40;;;6.80;;
20488;SDS011;10403;54.092;12.122;2024-02-26T08:46:24;17.87;;;7.73;;
20488;SDS011;10403;54.092;12.122;2024-02-26T08:48:52;17.90;;;6.97;;
20488;SDS011;10403;54.092;12.122;2024-02-26T08:51:19;12.47;;;6.80;;
20488;SDS011;10403;54.092;12.122;2024-02-26T08:53:47;13.10;;;5.97;;
20488;SDS011;10403;54.092;12.122;2024-02-26T08:56:15;7.73;;;5.97;;
20488;SDS011;10403;54.092;12.122;2024-02-26T08:58:46;13.13;;;6.73;;
20488;SDS011;10403;54.092;12.122;2024-02-26T09:01:15;16.97;;;6.87;;
20488;SDS011;10403;54.092;12.122;2024-02-26T09:03:43;8.80;;;6.83;;
20488;SDS011;10403;54.092;12.122;2024-02-26T09:06:11;12.73;;;7.17;;
20488;SDS011;10403;54.092;12.122;2024-02-26T09:08:42;14.13;;;7.30;;
20488;SDS011;10403;54.092;12.122;2024-02-26T09:11:09;10.13;;;6.97;;
20488;SDS011;10403;54.092;12.122;2024-02-26T09:13:37;10.17;;;7.10;;
20488;SDS011;10403;54.092;12.122;2024-02-26T09:16:04;12.80;;;7.83;;
20488;SDS011;10403;54.092;12.122;2024-02-26T09:18:32;9.47;;;7.03;;
20488;SDS011;10403;54.092;12.122;2024-02-26T09:21:03;14.00;;;7.57;;
20488;SDS011;10403;54.092;12.122;2024-02-26T09:23:33;21.07;;;7.87;;
20488;SDS011;10403;54.092;12.122;2024-02-26T09:26:01;13.90;;;7.40;;
20488;SDS011;10403;54.092;12.122;2024-02-26T09:28:29;16.87;;;7.73;;
20488;SDS011;10403;54.092;12.122;2024-02-26T09:31:01;12.13;;;7.57;;
20488;SDS011;10403;54.092;12.122;2024-02-26T09:33:28;15.40;;;8.10;;
20488;SDS011;10403;54.092;12.122;2024-02-26T09:35:56;17.70;;;7.80;;
20488;SDS011;10403;54.092;12.122;2024-02-26T09:38:23;12.03;;;7.47;;
20488;SDS011;10403;54.092;12.122;2024-02-26T09:40:50;12.23;;;7.63;;
20488;SDS011;10403;54.092;12.122;2024-02-26T09:43:18;16.73;;;8.87;;
20488;SDS011;10403;54.092;12.122;2024-02-26T09:45:50;19.37;;;9.03;;
20488;SDS011;10403;54.092;12.122;2024-02-26T09:48:20;20.87;;;8.37;;
20488;SDS011;10403;54.092;12.122;2024-02-26T09:50:50;29.43;;;9.10;;
20488;SDS011;10403;54.092;12.122;2024-02-26T09:53:19;22.13;;;9.70;;
20488;SDS011;10403;54.092;12.122;2024-02-26T09:55:48;16.27;;;9.03;;
20488;SDS011;10403;54.092;12.122;2024-02-26T09:58:16;14.97;;;7.70;;
20488;SDS011;10403;54.092;12.122;2024-02-26T10:00:46;17.00;;;7.13;;
20488;SDS011;10403;54.092;12.122;2024-02-26T10:03:21;17.57;;;7.53;;
20488;SDS011;10403;54.092;12.122;2024-02-26T10:05:51;14.27;;;7.40;;
20488;SDS011;10403;54.092;12.122;2024-02-26T10:08:22;16.30;;;6.90;;
20488;SDS011;10403;54.092;12.122;2024-02-26T10:10:50;15.97;;;6.20;;
20488;SDS011;10403;54.092;12.122;2024-02-26T10:13:18;14.20;;;5.30;;
20488;SDS011;10403;54.092;12.122;2024-02-26T10:15:47;7.27;;;4.47;;
20488;SDS011;10403;54.092;12.122;2024-02-26T10:18:14;12.87;;;4.50;;
20488;SDS011;10403;54.092;12.122;2024-02-26T10:20:42;12.17;;;4.43;;
20488;SDS011;10403;54.092;12.122;2024-02-26T10:23:09;8.63;;;4.30;;
20488;SDS011;10403;54.092;12.122;2024-02-26T10:25:37;6.07;;;3.30;;
20488;SDS011;10403;54.092;12.122;2024-02-26T10:28:18;5.20;;;3.17;;
20488;SDS011;10403;54.092;12.122;2024-02-26T10:30:46;5.03;;;2.87;;
20488;SDS011;10403;54.092;12.122;2024-02-26T10:33:13;5.73;;;3.20;;
20488;SDS011;10403;54.092;12.122;2024-02-26T10:35:47;5.37;;;3.80;;
20488;SDS011;10403;54.092;12.122;2024-02-26T10:38:15;8.77;;;3.67;;
20488;SDS011;10403;54.092;12.122;2024-02-26T10:40:48;6.90;;;3.80;;
20488;SDS011;10403;54.092;12.122;2024-02-26T10:43:16;5.53;;;3.10;;
20488;SDS011;10403;54.092;12.122;2024-02-26T10:45:45;7.13;;;3.70;;
20488;SDS011;10403;54.092;12.122;2024-02-26T10:48:14;8.20;;;3.90;;
20488;SDS011;10403;54.092;12.122;2024-02-26T10:50:42;7.03;;;3.43;;
20488;SDS011;10403;54.092;12.122;2024-02-26T10:53:13;5.10;;;3.57;;
20488;SDS011;10403;54.092;12.122;2024-02-26T10:55:45;4.27;;;3.20;;
20488;SDS011;10403;54.092;12.122;2024-02-26T10:58:22;6.83;;;3.57;;
20488;SDS011;10403;54.092;12.122;2024-02-26T11:00:51;4.80;;;3.73;;
20488;SDS011;10403;54.092;12.122;2024-02-26T11:03:19;8.23;;;3.60;;
20488;SDS011;10403;54.092;12.122;2024-02-26T11:05:49;8.57;;;3.73;;
20488;SDS011;10403;54.092;12.122;2024-02-26T11:08:20;5.67;;;4.00;;
20488;SDS011;10403;54.092;12.122;2024-02-26T11:10:48;4.63;;;3.57;;
20488;SDS011;10403;54.092;12.122;2024-02-26T11:13:21;11.30;;;3.60;;
20488;SDS011;10403;54.092;12.122;2024-02-26T11:15:54;8.80;;;3.57;;
20488;SDS011;10403;54.092;12.122;2024-02-26T11:18:24;4.27;;;3.23;;
20488;SDS011;10403;54.092;12.122;2024-02-26T11:20:54;7.27;;;3.40;;
20488;SDS011;10403;54.092;12.122;2024-02-26T11:23:24;5.33;;;3.50;;
20488;SDS011;10403;54.092;12.122;2024-02-26T11:25:52;12.70;;;3.97;;
20488;SDS011;10403;54.092;12.122;2024-02-26T11:28:22;11.40;;;3.63;;
20488;SDS011;10403;54.092;12.122;2024-02-26T11:30:53;13.03;;;4.67;;
20488;SDS011;10403;54.092;12.122;2024-02-26T11:33:23;9.90;;;3.77;;
20488;SDS011;10403;54.092;12.122;2024-02-26T11:35:54;6.60;;;3.77;;
20488;SDS011;10403;54.092;12.122;2024-02-26T11:38:23;11.80;;;3.33;;
20488;SDS011;10403;54.092;12.122;2024-02-26T11:40:53;4.30;;;3.23;;
20488;SDS011;10403;54.092;12.122;2024-02-26T11:46:29;7.47;;;3.33;;
20488;SDS011;10403;54.092;12.122;2024-02-26T11:51:58;4.33;;;2.83;;
20488;SDS011;10403;54.092;12.122;2024-02-26T11:57:32;8.47;;;3.17;;
20488;SDS011;10403;54.092;12.122;2024-02-26T12:03:07;9.90;;;3.73;;
20488;SDS011;10403;54.092;12.122;2024-02-26T12:05:32;6.03;;;2.77;;
20488;SDS011;10403;54.092;12.122;2024-02-26T12:08:02;3.97;;;2.80;;
20488;SDS011;10403;54.092;12.122;2024-02-26T12:10:36;12.40;;;3.57;;
20488;SDS011;10403;54.092;12.122;2024-02-26T12:13:08;11.73;;;3.37;;
20488;SDS011;10403;54.092;12.122;2024-02-26T12:15:55;8.67;;;4.27;;
20488;SDS011;10403;54.092;12.122;2024-02-26T12:18:25;7.83;;;4.80;;
20488;SDS011;10403;54.092;12.122;2024-02-26T12:21:03;7.17;;;5.03;;
20488;SDS011;10403;54.092;12.122;2024-02-26T12:23:31;7.37;;;5.13;;
20488;SDS011;10403;54.092;12.122;2024-02-26T12:25:59;9.53;;;5.53;;
20488;SDS011;10403;54.092;12.122;2024-02-26T12:28:33;7.23;;;5.73;;
20488;SDS011;10403;54.092;12.122;2024-02-26T12:31:01;8.50;;;5.87;;
20488;SDS011;10403;54.092;12.122;2024-02-26T12:33:28;11.37;;;5.50;;
20488;SDS011;10403;54.092;12.122;2024-02-26T12:35:57;7.57;;;5.63;;
20488;SDS011;10403;54.092;12.122;2024-02-26T12:38:26;12.73;;;5.60;;
20488;SDS011;10403;54.092;12.122;2024-02-26T12:40:54;7.13;;;5.60;;
20488;SDS011;10403;54.092;12.122;2024-02-26T12:43:21;10.57;;;5.83;;
20488;SDS011;10403;54.092;12.122;2024-02-26T12:45:49;9.93;;;5.60;;
20488;SDS011;10403;54.092;12.122;2024-02-26T12:48:17;8.13;;;5.57;;
20488;SDS011;10403;54.092;12.122;2024-02-26T12:50:45;11.00;;;5.90;;
20488;SDS011;10403;54.092;12.122;2024-02-26T12:53:16;6.20;;;5.20;;
20488;SDS011;10403;54.092;12.122;2024-02-26T12:55:44;6.63;;;5.17;;
20488;SDS011;10403;54.092;12.122;2024-02-26T12:58:12;7.83;;;4.87;;
20488;SDS011;10403;54.092;12.122;2024-02-26T13:00:41;12.20;;;5.47;;
20488;SDS011;10403;54.092;12.122;2024-02-26T13:03:09;9.20;;;5.97;;
20488;SDS011;10403;54.092;12.122;2024-02-26T13:05:37;9.37;;;5.27;;
20488;SDS011;10403;54.092;12.122;2024-02-26T13:08:05;8.43;;;6.00;;
20488;SDS011;10403;54.092;12.122;2024-02-26T13:10:35;7.87;;;6.10;;
20488;SDS011;10403;54.092;12.122;2024-02-26T13:13:03;12.13;;;6.43;;
20488;SDS011;10403;54.092;12.122;2024-02-26T13:15:32;9.07;;;6.40;;
20488;SDS011;10403;54.092;12.122;2024-02-26T13:17:59;8.70;;;6.10;;
20488;SDS011;10403;54.092;12.122;2024-02-26T13:20:40;10.27;;;6.57;;
20488;SDS011;10403;54.092;12.122;2024-02-26T13:23:10;10.30;;;5.80;;
20488;SDS011;10403;54.092;12.122;2024-02-26T13:25:40;10.27;;;5.57;;
20488;SDS011;10403;54.092;12.122;2024-02-26T13:28:15;9.33;;;6.43;;
20488;SDS011;10403;54.092;12.122;2024-02-26T13:30:50;11.33;;;6.27;;
20488;SDS011;10403;54.092;12.122;2024-02-26T13:33:27;8.93;;;5.80;;
20488;SDS011;10403;54.092;12.122;2024-02-26T13:35:56;7.53;;;5.27;;
20488;SDS011;10403;54.092;12.122;2024-02-26T13:38:25;6.33;;;5.13;;
20488;SDS011;10403;54.092;12.122;2024-02-26T13:40:55;11.43;;;6.60;;
20488;SDS011;10403;54.092;12.122;2024-02-26T13:43:25;12.50;;;8.13;;
20488;SDS011;10403;54.092;12.122;2024-02-26T13:45:53;12.90;;;7.77;;
20488;SDS011;10403;54.092;12.122;2024-02-26T13:48:21;10.43;;;7.00;;
20488;SDS011;10403;54.092;12.122;2024-02-26T13:50:49;11.10;;;8.50;;
20488;SDS011;10403;54.092;12.122;2024-02-26T13:53:19;10.53;;;8.50;;
20488;SDS011;10403;54.092;12.122;2024-02-26T13:55:50;11.07;;;7.70;;
20488;SDS011;10403;54.092;12.122;2024-02-26T13:58:17;10.60;;;7.43;;
20488;SDS011;10403;54.092;12.122;2024-02-26T14:00:49;9.63;;;7.20;;
20488;SDS011;10403;54.092;12.122;2024-02-26T14:03:16;8.60;;;6.37;;
20488;SDS011;10403;54.092;12.122;2024-02-26T14:05:44;9.83;;;6.47;;
20488;SDS011;10403;54.092;12.122;2024-02-26T14:08:14;7.77;;;6.27;;
20488;SDS011;10403;54.092;12.122;2024-02-26T14:10:42;13.00;;;6.70;;
20488;SDS011;10403;54.092;12.122;2024-02-26T14:13:09;9.87;;;6.70;;
20488;SDS011;10403;54.092;12.122;2024-02-26T14:15:36;9.20;;;6.50;;
20488;SDS011;10403;54.092;12.122;2024-02-26T14:18:06;11.90;;;6.70;;
20488;SDS011;10403;54.092;12.122;2024-02-26T14:20:34;8.83;;;6.00;;
20488;SDS011;10403;54.092;12.122;2024-02-26T14:23:01;11.37;;;6.10;;
20488;SDS011;10403;54.092;12.122;2024-02-26T14:25:29;8.33;;;5.47;;
20488;SDS011;10403;54.092;12.122;2024-02-26T14:27:57;8.87;;;5.40;;
20488;SDS011;10403;54.092;12.122;2024-02-26T14:30:25;9.63;;;5.67;;
20488;SDS011;10403;54.092;12.122;2024-02-26T14:32:53;9.17;;;6.40;;
20488;SDS011;10403;54.092;12.122;2024-02-26T14:35:21;10.97;;;5.93;;
20488;SDS011;10403;54.092;12.122;2024-02-26T14:37:49;6.50;;;5.67;;
20488;SDS011;10403;54.092;12.122;2024-02-26T14:40:18;11.97;;;5.47;;
20488;SDS011;10403;54.092;12.122;2024-02-26T14:42:46;10.27;;;5.23;;
20488;SDS011;10403;54.092;12.122;2024-02-26T14:45:13;11.70;;;5.53;;
20488;SDS011;10403;54.092;12.122;2024-02-26T14:47:41;6.30;;;5.20;;
20488;SDS011;10403;54.092;12.122;2024-02-26T14:50:08;6.40;;;5.33;;
20488;SDS011;10403;54.092;12.122;2024-02-26T14:52:35;7.10;;;4.87;;
20488;SDS011;10403;54.092;12.122;2024-02-26T14:55:03;6.07;;;4.83;;